sensor_id;sensor_type;location;lat;lon;timestamp;P1;durP1;ratioP1;P2;durP2;ratioP2
40745;SDS011;26454;51.164;4.488;2023-01-19T00:01:07;26.98;;;16.05;;
40745;SDS011;26454;51.164;4.488;2023-01-19T00:03:34;26.05;;;15.98;;
40745;SDS011;26454;51.164;4.488;2023-01-19T00:06:04;24.23;;;16.98;;
40745;SDS011;26454;51.164;4.488;2023-01-19T00:08:31;21.77;;;16.35;;
40745;SDS011;26454;51.164;4.488;2023-01-19T00:10:57;23.67;;;16.55;;
40745;SDS011;26454;51.164;4.488;2023-01-19T00:13:23;25.88;;;16.60;;
40745;SDS011;26454;51.164;4.488;2023-01-19T00:15:49;23.23;;;17.45;;
40745;SDS011;26454;51.164;4.488;2023-01-19T00:18:15;31.65;;;16.85;;
40745;SDS011;26454;51.164;4.488;2023-01-19T00:20:41;25.10;;;16.40;;
40745;SDS011;26454;51.164;4.488;2023-01-19T00:23:07;21.17;;;15.65;;
40745;SDS011;26454;51.164;4.488;2023-01-19T00:25:33;25.55;;;16.80;;
40745;SDS011;26454;51.164;4.488;2023-01-19T00:27:59;32.17;;;15.93;;
40745;SDS011;26454;51.164;4.488;2023-01-19T00:30:25;21.35;;;16.70;;
40745;SDS011;26454;51.164;4.488;2023-01-19T00:32:51;29.95;;;16.67;;
40745;SDS011;26454;51.164;4.488;2023-01-19T00:35:17;27.00;;;15.88;;
40745;SDS011;26454;51.164;4.488;2023-01-19T00:37:43;24.48;;;17.10;;
40745;SDS011;26454;51.164;4.488;2023-01-19T00:40:10;22.98;;;16.05;;
40745;SDS011;26454;51.164;4.488;2023-01-19T00:42:36;24.20;;;16.27;;
40745;SDS011;26454;51.164;4.488;2023-01-19T00:45:10;22.55;;;15.68;;
40745;SDS011;26454;51.164;4.488;2023-01-19T00:47:36;23.67;;;16.20;;
40745;SDS011;26454;51.164;4.488;2023-01-19T00:50:03;26.58;;;17.02;;
40745;SDS011;26454;51.164;4.488;2023-01-19T00:52:29;24.60;;;16.05;;
40745;SDS011;26454;51.164;4.488;2023-01-19T00:54:55;23.40;;;17.30;;
40745;SDS011;26454;51.164;4.488;2023-01-19T00:57:21;29.15;;;17.10;;
40745;SDS011;26454;51.164;4.488;2023-01-19T00:59:47;27.65;;;17.10;;
40745;SDS011;26454;51.164;4.488;2023-01-19T01:02:14;21.90;;;15.93;;
40745;SDS011;26454;51.164;4.488;2023-01-19T01:04:40;24.80;;;16.23;;
40745;SDS011;26454;51.164;4.488;2023-01-19T01:07:06;21.13;;;15.43;;
40745;SDS011;26454;51.164;4.488;2023-01-19T01:09:32;23.67;;;15.85;;
40745;SDS011;26454;51.164;4.488;2023-01-19T01:11:58;21.30;;;15.50;;
40745;SDS011;26454;51.164;4.488;2023-01-19T01:14:24;19.83;;;13.43;;
40745;SDS011;26454;51.164;4.488;2023-01-19T01:16:50;21.73;;;15.00;;
40745;SDS011;26454;51.164;4.488;2023-01-19T01:19:16;22.42;;;14.63;;
40745;SDS011;26454;51.164;4.488;2023-01-19T01:21:42;19.80;;;14.73;;
40745;SDS011;26454;51.164;4.488;2023-01-19T01:24:08;22.00;;;15.20;;
40745;SDS011;26454;51.164;4.488;2023-01-19T01:26:35;21.65;;;14.00;;
40745;SDS011;26454;51.164;4.488;2023-01-19T01:29:01;20.95;;;14.05;;
40745;SDS011;26454;51.164;4.488;2023-01-19T01:31:27;26.05;;;14.65;;
40745;SDS011;26454;51.164;4.488;2023-01-19T01:33:53;22.33;;;14.45;;
40745;SDS011;26454;51.164;4.488;2023-01-19T01:36:20;22.13;;;15.18;;
40745;SDS011;26454;51.164;4.488;2023-01-19T01:38:46;22.80;;;14.10;;
40745;SDS011;26454;51.164;4.488;2023-01-19T01:41:12;22.90;;;16.08;;
40745;SDS011;26454;51.164;4.488;2023-01-19T01:43:47;22.58;;;14.20;;
40745;SDS011;26454;51.164;4.488;2023-01-19T01:46:14;23.17;;;14.35;;
40745;SDS011;26454;51.164;4.488;2023-01-19T01:48:42;23.23;;;13.48;;
40745;SDS011;26454;51.164;4.488;2023-01-19T01:51:11;24.63;;;14.32;;
40745;SDS011;26454;51.164;4.488;2023-01-19T01:53:50;20.38;;;13.15;;
40745;SDS011;26454;51.164;4.488;2023-01-19T01:56:20;22.65;;;13.65;;
40745;SDS011;26454;51.164;4.488;2023-01-19T02:01:14;18.98;;;13.18;;
40745;SDS011;26454;51.164;4.488;2023-01-19T02:03:50;20.48;;;13.70;;
40745;SDS011;26454;51.164;4.488;2023-01-19T02:06:16;18.00;;;13.95;;
40745;SDS011;26454;51.164;4.488;2023-01-19T02:08:45;22.33;;;14.55;;
40745;SDS011;26454;51.164;4.488;2023-01-19T02:13:58;18.77;;;12.43;;
40745;SDS011;26454;51.164;4.488;2023-01-19T02:16:24;27.30;;;14.27;;
40745;SDS011;26454;51.164;4.488;2023-01-19T02:18:50;18.30;;;12.68;;
40745;SDS011;26454;51.164;4.488;2023-01-19T02:23:53;24.48;;;13.25;;
40745;SDS011;26454;51.164;4.488;2023-01-19T02:26:23;20.90;;;13.82;;
40745;SDS011;26454;51.164;4.488;2023-01-19T02:28:58;18.77;;;12.52;;
40745;SDS011;26454;51.164;4.488;2023-01-19T02:31:25;22.40;;;13.52;;
40745;SDS011;26454;51.164;4.488;2023-01-19T02:33:51;23.58;;;12.93;;
40745;SDS011;26454;51.164;4.488;2023-01-19T02:36:19;16.60;;;11.88;;
40745;SDS011;26454;51.164;4.488;2023-01-19T02:38:46;22.70;;;13.65;;
40745;SDS011;26454;51.164;4.488;2023-01-19T02:41:14;23.17;;;14.50;;
40745;SDS011;26454;51.164;4.488;2023-01-19T02:43:41;24.48;;;13.38;;
40745;SDS011;26454;51.164;4.488;2023-01-19T02:46:08;26.38;;;15.02;;
40745;SDS011;26454;51.164;4.488;2023-01-19T02:48:34;20.63;;;14.07;;
40745;SDS011;26454;51.164;4.488;2023-01-19T02:51:01;21.50;;;15.30;;
40745;SDS011;26454;51.164;4.488;2023-01-19T02:53:36;30.85;;;17.08;;
40745;SDS011;26454;51.164;4.488;2023-01-19T02:56:08;24.77;;;16.63;;
40745;SDS011;26454;51.164;4.488;2023-01-19T03:01:19;31.08;;;17.08;;
40745;SDS011;26454;51.164;4.488;2023-01-19T03:03:54;36.22;;;17.67;;
40745;SDS011;26454;51.164;4.488;2023-01-19T03:06:25;34.88;;;18.05;;
40745;SDS011;26454;51.164;4.488;2023-01-19T03:08:55;39.90;;;21.45;;
40745;SDS011;26454;51.164;4.488;2023-01-19T03:11:23;35.60;;;18.42;;
40745;SDS011;26454;51.164;4.488;2023-01-19T03:13:53;31.83;;;19.38;;
40745;SDS011;26454;51.164;4.488;2023-01-19T03:16:23;34.40;;;19.97;;
40745;SDS011;26454;51.164;4.488;2023-01-19T03:18:54;30.00;;;17.75;;
40745;SDS011;26454;51.164;4.488;2023-01-19T03:21:22;37.13;;;20.00;;
40745;SDS011;26454;51.164;4.488;2023-01-19T03:23:51;35.38;;;18.77;;
40745;SDS011;26454;51.164;4.488;2023-01-19T03:26:21;35.03;;;20.75;;
40745;SDS011;26454;51.164;4.488;2023-01-19T03:28:49;41.60;;;19.60;;
40745;SDS011;26454;51.164;4.488;2023-01-19T03:31:18;31.92;;;19.10;;
40745;SDS011;26454;51.164;4.488;2023-01-19T03:33:47;32.47;;;19.48;;
40745;SDS011;26454;51.164;4.488;2023-01-19T03:36:18;32.70;;;17.60;;
40745;SDS011;26454;51.164;4.488;2023-01-19T03:38:45;27.70;;;18.40;;
40745;SDS011;26454;51.164;4.488;2023-01-19T03:41:13;28.45;;;18.20;;
40745;SDS011;26454;51.164;4.488;2023-01-19T03:43:40;29.77;;;17.35;;
40745;SDS011;26454;51.164;4.488;2023-01-19T03:46:07;30.15;;;19.33;;
40745;SDS011;26454;51.164;4.488;2023-01-19T03:48:34;34.55;;;18.23;;
40745;SDS011;26454;51.164;4.488;2023-01-19T03:51:02;32.38;;;18.10;;
40745;SDS011;26454;51.164;4.488;2023-01-19T03:53:28;32.70;;;18.00;;
40745;SDS011;26454;51.164;4.488;2023-01-19T03:55:54;31.42;;;18.08;;
40745;SDS011;26454;51.164;4.488;2023-01-19T03:58:21;31.70;;;18.60;;
40745;SDS011;26454;51.164;4.488;2023-01-19T04:00:47;33.10;;;19.15;;
40745;SDS011;26454;51.164;4.488;2023-01-19T04:03:13;31.70;;;18.20;;
40745;SDS011;26454;51.164;4.488;2023-01-19T04:05:40;39.88;;;19.30;;
40745;SDS011;26454;51.164;4.488;2023-01-19T04:08:06;29.48;;;18.40;;
40745;SDS011;26454;51.164;4.488;2023-01-19T04:10:32;30.70;;;18.48;;
40745;SDS011;26454;51.164;4.488;2023-01-19T04:12:59;31.30;;;18.52;;
40745;SDS011;26454;51.164;4.488;2023-01-19T04:15:25;34.97;;;19.30;;
40745;SDS011;26454;51.164;4.488;2023-01-19T04:17:51;29.83;;;18.60;;
40745;SDS011;26454;51.164;4.488;2023-01-19T04:20:17;36.63;;;20.02;;
40745;SDS011;26454;51.164;4.488;2023-01-19T04:22:44;34.80;;;19.85;;
40745;SDS011;26454;51.164;4.488;2023-01-19T04:25:10;39.15;;;19.88;;
40745;SDS011;26454;51.164;4.488;2023-01-19T04:27:36;38.22;;;20.52;;
40745;SDS011;26454;51.164;4.488;2023-01-19T04:30:02;32.30;;;19.40;;
40745;SDS011;26454;51.164;4.488;2023-01-19T04:32:29;33.00;;;19.60;;
40745;SDS011;26454;51.164;4.488;2023-01-19T04:34:55;34.33;;;20.33;;
40745;SDS011;26454;51.164;4.488;2023-01-19T04:37:21;34.35;;;19.08;;
40745;SDS011;26454;51.164;4.488;2023-01-19T04:39:47;39.13;;;19.92;;
40745;SDS011;26454;51.164;4.488;2023-01-19T04:42:13;31.67;;;18.48;;
40745;SDS011;26454;51.164;4.488;2023-01-19T04:44:40;25.58;;;18.33;;
40745;SDS011;26454;51.164;4.488;2023-01-19T04:47:06;34.35;;;19.08;;
40745;SDS011;26454;51.164;4.488;2023-01-19T04:49:32;36.03;;;19.30;;
40745;SDS011;26454;51.164;4.488;2023-01-19T04:52:01;26.92;;;17.38;;
40745;SDS011;26454;51.164;4.488;2023-01-19T04:54:28;36.30;;;18.40;;
40745;SDS011;26454;51.164;4.488;2023-01-19T04:56:54;33.10;;;18.73;;
40745;SDS011;26454;51.164;4.488;2023-01-19T04:59:20;29.27;;;19.00;;
40745;SDS011;26454;51.164;4.488;2023-01-19T05:01:46;26.77;;;18.90;;
40745;SDS011;26454;51.164;4.488;2023-01-19T05:04:12;35.72;;;18.88;;
40745;SDS011;26454;51.164;4.488;2023-01-19T05:06:38;35.58;;;18.98;;
40745;SDS011;26454;51.164;4.488;2023-01-19T05:09:04;25.17;;;17.77;;
40745;SDS011;26454;51.164;4.488;2023-01-19T05:11:32;31.30;;;16.63;;
40745;SDS011;26454;51.164;4.488;2023-01-19T05:13:58;26.33;;;17.08;;
40745;SDS011;26454;51.164;4.488;2023-01-19T05:16:24;29.50;;;17.20;;
40745;SDS011;26454;51.164;4.488;2023-01-19T05:18:50;33.50;;;18.27;;
40745;SDS011;26454;51.164;4.488;2023-01-19T05:21:17;26.50;;;17.40;;
40745;SDS011;26454;51.164;4.488;2023-01-19T05:23:43;32.65;;;18.05;;
40745;SDS011;26454;51.164;4.488;2023-01-19T05:26:09;29.10;;;17.15;;
40745;SDS011;26454;51.164;4.488;2023-01-19T05:28:35;33.42;;;18.58;;
40745;SDS011;26454;51.164;4.488;2023-01-19T05:31:02;38.00;;;19.48;;
40745;SDS011;26454;51.164;4.488;2023-01-19T05:33:28;29.25;;;20.33;;
40745;SDS011;26454;51.164;4.488;2023-01-19T05:35:54;33.17;;;20.67;;
40745;SDS011;26454;51.164;4.488;2023-01-19T05:38:20;29.60;;;19.52;;
40745;SDS011;26454;51.164;4.488;2023-01-19T05:40:47;31.60;;;21.05;;
40745;SDS011;26454;51.164;4.488;2023-01-19T05:43:13;38.05;;;20.73;;
40745;SDS011;26454;51.164;4.488;2023-01-19T05:45:39;33.17;;;21.48;;
40745;SDS011;26454;51.164;4.488;2023-01-19T05:48:06;42.47;;;21.85;;
40745;SDS011;26454;51.164;4.488;2023-01-19T05:50:32;34.45;;;21.33;;
40745;SDS011;26454;51.164;4.488;2023-01-19T05:52:58;36.90;;;22.88;;
40745;SDS011;26454;51.164;4.488;2023-01-19T05:55:24;39.58;;;24.75;;
40745;SDS011;26454;51.164;4.488;2023-01-19T05:57:50;36.28;;;20.80;;
40745;SDS011;26454;51.164;4.488;2023-01-19T06:00:17;39.05;;;23.25;;
40745;SDS011;26454;51.164;4.488;2023-01-19T06:02:43;46.72;;;23.30;;
40745;SDS011;26454;51.164;4.488;2023-01-19T06:05:11;45.35;;;24.13;;
40745;SDS011;26454;51.164;4.488;2023-01-19T06:07:37;43.60;;;23.25;;
40745;SDS011;26454;51.164;4.488;2023-01-19T06:10:03;47.83;;;25.48;;
40745;SDS011;26454;51.164;4.488;2023-01-19T06:12:29;41.25;;;23.00;;
40745;SDS011;26454;51.164;4.488;2023-01-19T06:14:56;45.25;;;24.75;;
40745;SDS011;26454;51.164;4.488;2023-01-19T06:17:22;40.55;;;24.45;;
40745;SDS011;26454;51.164;4.488;2023-01-19T06:19:48;50.33;;;24.95;;
40745;SDS011;26454;51.164;4.488;2023-01-19T06:22:14;38.72;;;24.52;;
40745;SDS011;26454;51.164;4.488;2023-01-19T06:24:40;43.08;;;25.88;;
40745;SDS011;26454;51.164;4.488;2023-01-19T06:27:06;43.40;;;27.60;;
40745;SDS011;26454;51.164;4.488;2023-01-19T06:29:33;48.25;;;27.20;;
40745;SDS011;26454;51.164;4.488;2023-01-19T06:31:59;42.17;;;24.20;;
40745;SDS011;26454;51.164;4.488;2023-01-19T06:34:25;44.08;;;25.92;;
40745;SDS011;26454;51.164;4.488;2023-01-19T06:36:53;39.85;;;24.05;;
40745;SDS011;26454;51.164;4.488;2023-01-19T06:39:19;55.67;;;29.15;;
40745;SDS011;26454;51.164;4.488;2023-01-19T06:41:45;42.20;;;24.65;;
40745;SDS011;26454;51.164;4.488;2023-01-19T06:44:11;43.53;;;24.75;;
40745;SDS011;26454;51.164;4.488;2023-01-19T06:46:37;52.85;;;25.77;;
40745;SDS011;26454;51.164;4.488;2023-01-19T06:49:04;42.67;;;26.02;;
40745;SDS011;26454;51.164;4.488;2023-01-19T06:51:30;46.42;;;26.67;;
40745;SDS011;26454;51.164;4.488;2023-01-19T06:53:55;45.10;;;25.27;;
40745;SDS011;26454;51.164;4.488;2023-01-19T06:56:22;44.10;;;25.75;;
40745;SDS011;26454;51.164;4.488;2023-01-19T06:58:48;47.47;;;27.15;;
40745;SDS011;26454;51.164;4.488;2023-01-19T07:01:14;52.80;;;26.27;;
40745;SDS011;26454;51.164;4.488;2023-01-19T07:03:40;42.22;;;25.50;;
40745;SDS011;26454;51.164;4.488;2023-01-19T07:06:07;45.25;;;23.88;;
40745;SDS011;26454;51.164;4.488;2023-01-19T07:08:34;45.72;;;26.75;;
40745;SDS011;26454;51.164;4.488;2023-01-19T07:11:01;51.35;;;27.17;;
40745;SDS011;26454;51.164;4.488;2023-01-19T07:13:30;49.47;;;27.15;;
40745;SDS011;26454;51.164;4.488;2023-01-19T07:15:56;42.70;;;24.90;;
40745;SDS011;26454;51.164;4.488;2023-01-19T07:18:22;53.22;;;26.67;;
40745;SDS011;26454;51.164;4.488;2023-01-19T07:20:49;52.40;;;26.60;;
40745;SDS011;26454;51.164;4.488;2023-01-19T07:23:15;48.42;;;27.17;;
40745;SDS011;26454;51.164;4.488;2023-01-19T07:25:45;44.10;;;27.50;;
40745;SDS011;26454;51.164;4.488;2023-01-19T07:28:11;46.65;;;27.17;;
40745;SDS011;26454;51.164;4.488;2023-01-19T07:30:39;47.72;;;28.17;;
40745;SDS011;26454;51.164;4.488;2023-01-19T07:33:09;52.28;;;28.15;;
40745;SDS011;26454;51.164;4.488;2023-01-19T07:35:35;44.60;;;26.35;;
40745;SDS011;26454;51.164;4.488;2023-01-19T07:38:03;49.88;;;26.30;;
40745;SDS011;26454;51.164;4.488;2023-01-19T07:40:30;45.90;;;26.23;;
40745;SDS011;26454;51.164;4.488;2023-01-19T07:42:57;52.33;;;26.88;;
40745;SDS011;26454;51.164;4.488;2023-01-19T07:45:23;53.33;;;27.73;;
40745;SDS011;26454;51.164;4.488;2023-01-19T07:47:50;51.88;;;25.88;;
40745;SDS011;26454;51.164;4.488;2023-01-19T07:50:16;44.08;;;25.70;;
40745;SDS011;26454;51.164;4.488;2023-01-19T07:52:45;49.05;;;25.98;;
40745;SDS011;26454;51.164;4.488;2023-01-19T07:55:15;54.85;;;28.63;;
40745;SDS011;26454;51.164;4.488;2023-01-19T07:57:41;55.42;;;27.38;;
40745;SDS011;26454;51.164;4.488;2023-01-19T08:00:08;47.28;;;25.63;;
40745;SDS011;26454;51.164;4.488;2023-01-19T08:02:34;47.92;;;26.52;;
40745;SDS011;26454;51.164;4.488;2023-01-19T08:05:03;45.05;;;24.08;;
40745;SDS011;26454;51.164;4.488;2023-01-19T08:07:29;52.83;;;27.85;;
40745;SDS011;26454;51.164;4.488;2023-01-19T08:09:55;46.05;;;24.38;;
40745;SDS011;26454;51.164;4.488;2023-01-19T08:12:21;59.28;;;27.65;;
40745;SDS011;26454;51.164;4.488;2023-01-19T08:19:43;52.17;;;30.33;;
40745;SDS011;26454;51.164;4.488;2023-01-19T08:22:10;50.15;;;27.35;;
40745;SDS011;26454;51.164;4.488;2023-01-19T08:24:36;52.97;;;27.10;;
40745;SDS011;26454;51.164;4.488;2023-01-19T08:27:03;46.97;;;26.38;;
40745;SDS011;26454;51.164;4.488;2023-01-19T08:29:29;50.30;;;26.85;;
40745;SDS011;26454;51.164;4.488;2023-01-19T08:31:56;50.83;;;26.95;;
40745;SDS011;26454;51.164;4.488;2023-01-19T08:34:24;57.67;;;27.65;;
40745;SDS011;26454;51.164;4.488;2023-01-19T08:36:51;48.58;;;27.80;;
40745;SDS011;26454;51.164;4.488;2023-01-19T08:39:17;51.63;;;27.58;;
40745;SDS011;26454;51.164;4.488;2023-01-19T08:41:44;47.70;;;27.45;;
40745;SDS011;26454;51.164;4.488;2023-01-19T08:44:10;47.83;;;25.20;;
40745;SDS011;26454;51.164;4.488;2023-01-19T08:46:36;50.80;;;26.35;;
40745;SDS011;26454;51.164;4.488;2023-01-19T08:49:02;49.22;;;26.58;;
40745;SDS011;26454;51.164;4.488;2023-01-19T08:51:28;47.92;;;27.58;;
40745;SDS011;26454;51.164;4.488;2023-01-19T08:53:54;46.30;;;26.38;;
40745;SDS011;26454;51.164;4.488;2023-01-19T08:56:20;43.40;;;25.27;;
40745;SDS011;26454;51.164;4.488;2023-01-19T08:58:46;50.42;;;25.25;;
40745;SDS011;26454;51.164;4.488;2023-01-19T09:01:13;48.95;;;25.85;;
40745;SDS011;26454;51.164;4.488;2023-01-19T09:03:41;45.72;;;23.63;;
40745;SDS011;26454;51.164;4.488;2023-01-19T09:06:07;43.17;;;25.08;;
40745;SDS011;26454;51.164;4.488;2023-01-19T09:08:34;48.38;;;25.73;;
40745;SDS011;26454;51.164;4.488;2023-01-19T09:11:00;47.80;;;24.40;;
40745;SDS011;26454;51.164;4.488;2023-01-19T09:13:26;41.55;;;24.00;;
40745;SDS011;26454;51.164;4.488;2023-01-19T09:15:54;41.20;;;23.85;;
40745;SDS011;26454;51.164;4.488;2023-01-19T09:18:21;35.40;;;22.25;;
40745;SDS011;26454;51.164;4.488;2023-01-19T09:20:48;49.00;;;24.23;;
40745;SDS011;26454;51.164;4.488;2023-01-19T09:23:19;50.35;;;23.67;;
40745;SDS011;26454;51.164;4.488;2023-01-19T09:25:46;43.38;;;21.92;;
40745;SDS011;26454;51.164;4.488;2023-01-19T09:28:13;42.75;;;24.40;;
40745;SDS011;26454;51.164;4.488;2023-01-19T09:30:40;35.35;;;20.23;;
40745;SDS011;26454;51.164;4.488;2023-01-19T09:33:14;33.75;;;20.98;;
40745;SDS011;26454;51.164;4.488;2023-01-19T09:35:41;39.60;;;21.65;;
40745;SDS011;26454;51.164;4.488;2023-01-19T09:38:07;34.22;;;19.75;;
40745;SDS011;26454;51.164;4.488;2023-01-19T09:40:35;42.85;;;23.00;;
40745;SDS011;26454;51.164;4.488;2023-01-19T09:45:38;41.50;;;20.50;;
40745;SDS011;26454;51.164;4.488;2023-01-19T09:48:12;42.45;;;20.15;;
40745;SDS011;26454;51.164;4.488;2023-01-19T09:50:41;41.35;;;21.25;;
40745;SDS011;26454;51.164;4.488;2023-01-19T09:53:13;34.97;;;19.17;;
40745;SDS011;26454;51.164;4.488;2023-01-19T09:55:42;30.17;;;19.63;;
40745;SDS011;26454;51.164;4.488;2023-01-19T09:58:12;34.60;;;19.60;;
40745;SDS011;26454;51.164;4.488;2023-01-19T10:00:42;37.80;;;20.65;;
40745;SDS011;26454;51.164;4.488;2023-01-19T10:03:14;36.95;;;21.50;;
40745;SDS011;26454;51.164;4.488;2023-01-19T10:05:45;28.45;;;17.60;;
40745;SDS011;26454;51.164;4.488;2023-01-19T10:08:20;35.88;;;18.52;;
40745;SDS011;26454;51.164;4.488;2023-01-19T10:10:52;32.58;;;17.92;;
40745;SDS011;26454;51.164;4.488;2023-01-19T10:16:08;37.00;;;17.77;;
40745;SDS011;26454;51.164;4.488;2023-01-19T10:18:41;28.33;;;17.13;;
40745;SDS011;26454;51.164;4.488;2023-01-19T10:21:13;36.30;;;17.70;;
40745;SDS011;26454;51.164;4.488;2023-01-19T10:23:45;32.88;;;16.98;;
40745;SDS011;26454;51.164;4.488;2023-01-19T10:26:21;31.35;;;17.83;;
40745;SDS011;26454;51.164;4.488;2023-01-19T10:28:49;29.15;;;17.83;;
40745;SDS011;26454;51.164;4.488;2023-01-19T10:31:16;28.15;;;17.05;;
40745;SDS011;26454;51.164;4.488;2023-01-19T10:33:43;32.22;;;17.13;;
40745;SDS011;26454;51.164;4.488;2023-01-19T10:38:46;33.17;;;18.75;;
40745;SDS011;26454;51.164;4.488;2023-01-19T10:41:16;36.97;;;21.65;;
40745;SDS011;26454;51.164;4.488;2023-01-19T10:46:14;31.13;;;19.23;;
40745;SDS011;26454;51.164;4.488;2023-01-19T10:48:42;29.55;;;19.08;;
40745;SDS011;26454;51.164;4.488;2023-01-19T10:51:09;32.20;;;20.45;;
40745;SDS011;26454;51.164;4.488;2023-01-19T10:53:35;30.55;;;18.35;;
40745;SDS011;26454;51.164;4.488;2023-01-19T10:58:38;35.72;;;20.67;;
40745;SDS011;26454;51.164;4.488;2023-01-19T11:03:41;36.25;;;21.05;;
40745;SDS011;26454;51.164;4.488;2023-01-19T11:09:08;38.95;;;22.02;;
40745;SDS011;26454;51.164;4.488;2023-01-19T11:14:13;38.53;;;21.52;;
40745;SDS011;26454;51.164;4.488;2023-01-19T11:16:40;41.15;;;21.80;;
40745;SDS011;26454;51.164;4.488;2023-01-19T11:19:18;36.53;;;21.73;;
40745;SDS011;26454;51.164;4.488;2023-01-19T11:21:45;34.33;;;21.45;;
40745;SDS011;26454;51.164;4.488;2023-01-19T11:24:11;46.08;;;20.33;;
40745;SDS011;26454;51.164;4.488;2023-01-19T11:26:45;34.92;;;21.35;;
40745;SDS011;26454;51.164;4.488;2023-01-19T11:29:19;38.13;;;21.83;;
40745;SDS011;26454;51.164;4.488;2023-01-19T11:31:46;37.05;;;21.58;;
40745;SDS011;26454;51.164;4.488;2023-01-19T11:36:56;40.28;;;22.70;;
40745;SDS011;26454;51.164;4.488;2023-01-19T11:39:24;39.92;;;22.38;;
40745;SDS011;26454;51.164;4.488;2023-01-19T11:41:54;42.45;;;24.42;;
40745;SDS011;26454;51.164;4.488;2023-01-19T11:44:29;41.70;;;22.27;;
40745;SDS011;26454;51.164;4.488;2023-01-19T11:46:58;42.63;;;24.10;;
40745;SDS011;26454;51.164;4.488;2023-01-19T11:52:12;42.90;;;25.27;;
40745;SDS011;26454;51.164;4.488;2023-01-19T11:54:44;42.50;;;25.45;;
40745;SDS011;26454;51.164;4.488;2023-01-19T11:57:12;50.15;;;24.48;;
40745;SDS011;26454;51.164;4.488;2023-01-19T11:59:39;51.95;;;24.95;;
40745;SDS011;26454;51.164;4.488;2023-01-19T12:02:12;52.25;;;26.65;;
40745;SDS011;26454;51.164;4.488;2023-01-19T12:04:40;53.20;;;27.88;;
40745;SDS011;26454;51.164;4.488;2023-01-19T12:07:08;47.85;;;25.92;;
40745;SDS011;26454;51.164;4.488;2023-01-19T12:09:40;51.92;;;27.25;;
40745;SDS011;26454;51.164;4.488;2023-01-19T12:12:11;51.28;;;28.05;;
40745;SDS011;26454;51.164;4.488;2023-01-19T12:14:41;51.85;;;26.35;;
40745;SDS011;26454;51.164;4.488;2023-01-19T12:17:12;59.30;;;26.92;;
40745;SDS011;26454;51.164;4.488;2023-01-19T12:19:43;49.97;;;28.42;;
40745;SDS011;26454;51.164;4.488;2023-01-19T12:22:14;56.10;;;28.00;;
40745;SDS011;26454;51.164;4.488;2023-01-19T12:27:21;46.00;;;26.63;;
40745;SDS011;26454;51.164;4.488;2023-01-19T12:29:52;47.10;;;25.75;;
40745;SDS011;26454;51.164;4.488;2023-01-19T12:32:28;46.00;;;24.20;;
40745;SDS011;26454;51.164;4.488;2023-01-19T12:35:00;47.88;;;25.38;;
40745;SDS011;26454;51.164;4.488;2023-01-19T12:37:28;46.55;;;23.20;;
40745;SDS011;26454;51.164;4.488;2023-01-19T12:39:57;40.72;;;22.30;;
40745;SDS011;26454;51.164;4.488;2023-01-19T12:42:24;40.42;;;22.52;;
40745;SDS011;26454;51.164;4.488;2023-01-19T12:44:57;42.10;;;21.77;;
40745;SDS011;26454;51.164;4.488;2023-01-19T12:47:28;44.05;;;23.67;;
40745;SDS011;26454;51.164;4.488;2023-01-19T12:49:55;47.92;;;22.17;;
40745;SDS011;26454;51.164;4.488;2023-01-19T12:52:32;52.10;;;25.67;;
40745;SDS011;26454;51.164;4.488;2023-01-19T12:55:01;46.63;;;24.02;;
40745;SDS011;26454;51.164;4.488;2023-01-19T12:57:29;47.08;;;21.70;;
40745;SDS011;26454;51.164;4.488;2023-01-19T12:59:57;52.92;;;22.77;;
40745;SDS011;26454;51.164;4.488;2023-01-19T13:05:11;52.85;;;24.75;;
40745;SDS011;26454;51.164;4.488;2023-01-19T13:13:15;37.63;;;21.33;;
40745;SDS011;26454;51.164;4.488;2023-01-19T13:15:35;44.63;;;23.48;;
40745;SDS011;26454;51.164;4.488;2023-01-19T13:18:02;45.95;;;23.40;;
40745;SDS011;26454;51.164;4.488;2023-01-19T13:20:32;46.05;;;23.83;;
40745;SDS011;26454;51.164;4.488;2023-01-19T13:23:19;42.25;;;23.20;;
40745;SDS011;26454;51.164;4.488;2023-01-19T13:25:46;40.67;;;22.48;;
40745;SDS011;26454;51.164;4.488;2023-01-19T13:28:14;39.35;;;23.58;;
40745;SDS011;26454;51.164;4.488;2023-01-19T13:30:48;45.20;;;24.55;;
40745;SDS011;26454;51.164;4.488;2023-01-19T13:33:18;44.50;;;24.02;;
40745;SDS011;26454;51.164;4.488;2023-01-19T13:35:48;47.78;;;25.10;;
40745;SDS011;26454;51.164;4.488;2023-01-19T13:38:14;53.33;;;25.92;;
40745;SDS011;26454;51.164;4.488;2023-01-19T13:40:41;44.55;;;26.40;;
40745;SDS011;26454;51.164;4.488;2023-01-19T13:43:16;54.95;;;27.15;;
40745;SDS011;26454;51.164;4.488;2023-01-19T13:45:45;47.63;;;27.90;;
40745;SDS011;26454;51.164;4.488;2023-01-19T13:48:14;53.65;;;26.52;;
40745;SDS011;26454;51.164;4.488;2023-01-19T13:50:41;51.03;;;26.13;;
40745;SDS011;26454;51.164;4.488;2023-01-19T13:53:17;49.60;;;27.48;;
40745;SDS011;26454;51.164;4.488;2023-01-19T13:55:44;43.80;;;24.75;;
40745;SDS011;26454;51.164;4.488;2023-01-19T13:58:19;47.90;;;24.95;;
40745;SDS011;26454;51.164;4.488;2023-01-19T14:00:47;42.92;;;24.83;;
40745;SDS011;26454;51.164;4.488;2023-01-19T14:03:15;42.70;;;24.55;;
40745;SDS011;26454;51.164;4.488;2023-01-19T14:05:47;43.83;;;25.58;;
40745;SDS011;26454;51.164;4.488;2023-01-19T14:08:14;42.00;;;24.38;;
40745;SDS011;26454;51.164;4.488;2023-01-19T14:10:47;46.85;;;26.02;;
40745;SDS011;26454;51.164;4.488;2023-01-19T14:13:27;39.00;;;23.40;;
40745;SDS011;26454;51.164;4.488;2023-01-19T14:15:56;44.08;;;25.63;;
40745;SDS011;26454;51.164;4.488;2023-01-19T14:18:26;44.38;;;21.65;;
40745;SDS011;26454;51.164;4.488;2023-01-19T14:20:56;47.38;;;24.65;;
40745;SDS011;26454;51.164;4.488;2023-01-19T14:28:35;39.40;;;24.05;;
40745;SDS011;26454;51.164;4.488;2023-01-19T14:33:41;33.15;;;22.05;;
40745;SDS011;26454;51.164;4.488;2023-01-19T14:36:19;45.38;;;22.92;;
40745;SDS011;26454;51.164;4.488;2023-01-19T14:38:49;38.33;;;22.60;;
40745;SDS011;26454;51.164;4.488;2023-01-19T14:41:21;36.53;;;21.02;;
40745;SDS011;26454;51.164;4.488;2023-01-19T14:43:47;40.70;;;22.63;;
40745;SDS011;26454;51.164;4.488;2023-01-19T14:46:16;43.03;;;22.30;;
40745;SDS011;26454;51.164;4.488;2023-01-19T14:48:45;41.33;;;23.53;;
40745;SDS011;26454;51.164;4.488;2023-01-19T14:51:14;41.40;;;22.73;;
40745;SDS011;26454;51.164;4.488;2023-01-19T14:53:44;35.58;;;22.63;;
40745;SDS011;26454;51.164;4.488;2023-01-19T14:56:11;38.78;;;23.80;;
40745;SDS011;26454;51.164;4.488;2023-01-19T14:58:48;38.80;;;21.85;;
40745;SDS011;26454;51.164;4.488;2023-01-19T15:01:14;33.58;;;21.42;;
40745;SDS011;26454;51.164;4.488;2023-01-19T15:03:40;53.85;;;21.52;;
40745;SDS011;26454;51.164;4.488;2023-01-19T15:06:09;38.58;;;23.10;;
40745;SDS011;26454;51.164;4.488;2023-01-19T15:08:35;49.60;;;23.33;;
40745;SDS011;26454;51.164;4.488;2023-01-19T15:11:11;40.80;;;21.65;;
40745;SDS011;26454;51.164;4.488;2023-01-19T15:13:40;38.92;;;23.23;;
40745;SDS011;26454;51.164;4.488;2023-01-19T15:16:06;40.17;;;22.25;;
40745;SDS011;26454;51.164;4.488;2023-01-19T15:18:33;39.03;;;22.45;;
40745;SDS011;26454;51.164;4.488;2023-01-19T15:21:00;39.47;;;22.25;;
40745;SDS011;26454;51.164;4.488;2023-01-19T15:23:27;49.00;;;25.65;;
40745;SDS011;26454;51.164;4.488;2023-01-19T15:25:57;42.92;;;25.02;;